Time;durP1;ratioP1;P1;durP2;ratioP2;P2;SDS_P1;SDS_P2;PMS_P1;PMS_P2;Temp;Humidity;BMP_temperature;BMP_pressure;BME280_temperature;BME280_humidity;BME280_pressure;Samples;Min_cycle;Max_cycle;Signal;HPM_P1;HPM_P2
2022/03/14 00:00:47;;;;;;;15.77;8.90;;;8.80;99.90;;;;;;4996015;28;20050;-86
2022/03/14 00:03:14;;;;;;;14.65;8.45;;;8.80;99.90;;;;;;4991913;28;20037;-85
2022/03/14 00:05:41;;;;;;;16.23;8.65;;;8.80;99.90;;;;;;5001624;28;20037;-87
2022/03/14 00:08:07;;;;;;;15.48;9.30;;;8.80;99.90;;;;;;4987334;28;20052;-85
2022/03/14 00:10:36;;;;;;;15.65;8.70;;;8.80;99.90;;;;;;4969192;28;20049;-86
2022/03/14 00:13:03;;;;;;;16.15;8.90;;;8.70;99.90;;;;;;4968082;28;20038;-85
2022/03/14 00:15:30;;;;;;;15.18;8.82;;;10.40;99.90;;;;;;4987960;28;20530;-86
2022/03/14 00:17:56;;;;;;;15.85;9.20;;;8.70;99.90;;;;;;5001652;28;20045;-86
2022/03/14 00:20:23;;;;;;;15.52;9.13;;;8.70;99.90;;;;;;4992482;28;20053;-85
2022/03/14 00:22:49;;;;;;;16.65;9.38;;;8.70;99.90;;;;;;5003861;28;20422;-86
2022/03/14 00:25:15;;;;;;;15.82;9.30;;;8.70;99.90;;;;;;4984451;28;20044;-85
2022/03/14 00:27:40;;;;;;;15.35;9.13;;;9.40;99.90;;;;;;5005700;28;20041;-85
2022/03/14 00:30:10;;;;;;;16.15;9.55;;;8.60;99.90;;;;;;4985994;28;20100;-85
2022/03/14 00:32:36;;;;;;;15.98;8.77;;;8.70;99.90;;;;;;4999847;28;20052;-85
2022/03/14 00:35:03;;;;;;;17.42;9.55;;;8.70;99.90;;;;;;4990852;28;20526;-86
2022/03/14 00:37:28;;;;;;;15.70;9.23;;;8.70;99.90;;;;;;4994947;28;20128;-86
2022/03/14 00:39:54;;;;;;;18.25;9.52;;;9.30;99.90;;;;;;4977018;28;20463;-86
2022/03/14 00:42:23;;;;;;;15.38;9.02;;;8.70;99.90;;;;;;4970887;28;20042;-86
2022/03/14 00:44:50;;;;;;;15.93;9.23;;;8.70;99.90;;;;;;4969247;28;20056;-86
2022/03/14 00:47:17;;;;;;;16.05;9.07;;;8.70;99.90;;;;;;4989439;28;20025;-86
2022/03/14 00:49:43;;;;;;;15.10;8.98;;;8.80;99.90;;;;;;5003362;28;20034;-86
2022/03/14 00:52:10;;;;;;;16.38;9.18;;;8.80;99.90;;;;;;4974379;28;20073;-86
2022/03/14 00:54:37;;;;;;;15.07;8.63;;;10.10;99.90;;;;;;5001797;28;20122;-86
2022/03/14 00:57:03;;;;;;;16.50;9.05;;;9.50;99.90;;;;;;5002917;28;20042;-87
2022/03/14 00:59:29;;;;;;;15.25;8.80;;;8.80;99.90;;;;;;4984687;28;20052;-86
2022/03/14 01:01:55;;;;;;;13.82;8.30;;;9.00;99.90;;;;;;4987333;28;20049;-86
2022/03/14 01:04:21;;;;;;;13.93;8.50;;;9.30;99.90;;;;;;4988536;28;20029;-86
2022/03/14 01:06:47;;;;;;;15.23;8.38;;;8.70;99.90;;;;;;4995207;28;20056;-86
2022/03/14 01:09:14;;;;;;;16.67;9.38;;;9.50;99.90;;;;;;4990468;28;20045;-85
2022/03/14 01:11:42;;;;;;;15.68;9.73;;;9.90;99.90;;;;;;4974020;28;20163;-86
2022/03/14 01:14:09;;;;;;;14.93;9.30;;;8.90;99.90;;;;;;4972549;28;20629;-86
2022/03/14 01:16:35;;;;;;;14.93;8.90;;;9.00;99.90;;;;;;4989973;28;20049;-85
2022/03/14 01:19:00;;;;;;;15.15;8.63;;;9.90;99.90;;;;;;4988901;28;20081;-86
2022/03/14 01:21:30;;;;;;;15.07;8.48;;;8.60;99.90;;;;;;4990347;28;20135;-86
2022/03/14 01:23:57;;;;;;;16.65;9.25;;;9.80;99.90;;;;;;4993500;28;20033;-86
2022/03/14 01:26:22;;;;;;;14.02;8.45;;;8.70;99.90;;;;;;4988677;28;20033;-87
2022/03/14 01:28:48;;;;;;;16.90;9.40;;;8.70;99.90;;;;;;4990505;28;20110;-85
2022/03/14 01:31:15;;;;;;;16.35;9.13;;;8.90;99.90;;;;;;4989256;28;20130;-86
2022/03/14 01:33:41;;;;;;;14.52;8.68;;;8.70;99.90;;;;;;4984862;28;20052;-86
2022/03/14 01:36:07;;;;;;;15.50;9.10;;;9.40;99.90;;;;;;4993547;28;20497;-85
2022/03/14 01:38:32;;;;;;;15.30;8.43;;;8.70;99.90;;;;;;4999645;28;20037;-86
2022/03/14 01:40:58;;;;;;;14.02;8.20;;;8.70;99.90;;;;;;4979088;28;20041;-86
2022/03/14 01:43:24;;;;;;;15.93;8.38;;;9.00;99.90;;;;;;5008235;28;20124;-86
2022/03/14 01:45:50;;;;;;;14.68;8.70;;;9.50;99.90;;;;;;4978805;28;20125;-86
2022/03/14 01:48:16;;;;;;;15.00;8.30;;;8.70;99.90;;;;;;4973877;28;20037;-86
2022/03/14 01:50:41;;;;;;;14.27;8.52;;;8.80;99.90;;;;;;4988237;28;20048;-86
2022/03/14 01:53:08;;;;;;;13.50;8.13;;;8.70;99.90;;;;;;5003283;28;20077;-86
2022/03/14 01:55:34;;;;;;;14.32;8.55;;;9.30;99.90;;;;;;5006750;28;20046;-86
2022/03/14 01:58:03;;;;;;;15.77;8.55;;;8.70;99.90;;;;;;4994852;28;20533;-86
2022/03/14 02:00:29;;;;;;;14.77;8.27;;;8.70;99.90;;;;;;5012778;28;20041;-86
2022/03/14 02:02:55;;;;;;;14.30;8.77;;;8.80;99.90;;;;;;4997336;28;20030;-87
2022/03/14 02:05:21;;;;;;;14.77;8.13;;;8.80;99.90;;;;;;4996975;28;20685;-86
2022/03/14 02:07:47;;;;;;;15.13;8.20;;;9.90;99.90;;;;;;4995950;28;20042;-86
2022/03/14 02:10:12;;;;;;;13.77;7.85;;;8.80;99.90;;;;;;4999011;28;20087;-86
2022/03/14 02:12:44;;;;;;;14.50;7.85;;;9.00;99.90;;;;;;4976748;28;20064;-87
2022/03/14 02:15:10;;;;;;;13.95;7.80;;;8.80;99.90;;;;;;4991522;28;20045;-86
2022/03/14 02:17:36;;;;;;;15.18;7.75;;;9.30;99.90;;;;;;5011934;28;20052;-87
2022/03/14 02:20:02;;;;;;;13.57;7.80;;;8.80;99.90;;;;;;4979885;28;20041;-86
2022/03/14 02:22:28;;;;;;;17.25;8.00;;;8.80;99.90;;;;;;4980179;28;20092;-87
2022/03/14 02:24:53;;;;;;;14.05;8.50;;;8.80;99.90;;;;;;4980120;28;20325;-87
2022/03/14 02:27:19;;;;;;;14.95;8.18;;;9.20;99.90;;;;;;4995809;28;20114;-86
2022/03/14 02:29:45;;;;;;;14.25;7.80;;;8.70;99.90;;;;;;4979559;28;20072;-86
2022/03/14 02:32:12;;;;;;;13.02;7.75;;;8.70;99.90;;;;;;4960441;28;20088;-85
2022/03/14 02:34:38;;;;;;;15.93;8.13;;;10.00;99.90;;;;;;4978146;28;20042;-86
2022/03/14 02:37:04;;;;;;;13.88;8.20;;;8.70;99.90;;;;;;4992493;28;20056;-87
2022/03/14 02:39:34;;;;;;;15.05;8.95;;;9.90;99.90;;;;;;4979753;28;20038;-87
2022/03/14 02:42:01;;;;;;;15.25;8.88;;;9.30;99.90;;;;;;4979591;28;20084;-86
2022/03/14 02:44:27;;;;;;;14.27;8.52;;;8.60;99.90;;;;;;4977245;28;20034;-86
2022/03/14 02:46:53;;;;;;;14.95;8.57;;;8.60;99.90;;;;;;5006297;28;20538;-86
2022/03/14 02:49:19;;;;;;;13.88;8.52;;;9.60;99.90;;;;;;4995160;28;20163;-86
2022/03/14 02:51:46;;;;;;;14.20;8.70;;;8.50;99.90;;;;;;4977158;28;20128;-86
2022/03/14 02:54:12;;;;;;;14.43;8.55;;;8.50;99.90;;;;;;5002199;28;20038;-87
2022/03/14 02:56:40;;;;;;;14.27;8.60;;;8.50;99.90;;;;;;4978293;28;20091;-86
2022/03/14 02:59:08;;;;;;;14.32;8.48;;;8.50;99.90;;;;;;4992594;28;20069;-85
2022/03/14 03:01:34;;;;;;;13.55;8.00;;;8.40;99.90;;;;;;4993197;28;20179;-86
2022/03/14 03:04:00;;;;;;;15.82;8.60;;;8.50;99.90;;;;;;4984009;28;20057;-87
2022/03/14 03:06:27;;;;;;;13.90;7.97;;;8.50;99.90;;;;;;4996758;28;20038;-86
2022/03/14 03:08:53;;;;;;;12.98;7.45;;;8.90;99.90;;;;;;4996162;28;20042;-86
2022/03/14 03:11:21;;;;;;;13.07;7.40;;;8.50;99.90;;;;;;4972903;28;20088;-86
2022/03/14 03:13:48;;;;;;;13.70;8.20;;;8.60;99.90;;;;;;4978675;28;20045;-86
2022/03/14 03:16:16;;;;;;;14.68;8.25;;;8.60;99.90;;;;;;5016177;28;20053;-86
2022/03/14 03:18:45;;;;;;;14.25;8.27;;;8.60;99.90;;;;;;4988208;28;20045;-86
2022/03/14 03:21:11;;;;;;;14.50;7.78;;;9.00;99.90;;;;;;4967428;28;20064;-86
2022/03/14 03:23:38;;;;;;;14.10;8.18;;;8.50;99.90;;;;;;4999373;28;20512;-85
2022/03/14 03:26:04;;;;;;;13.50;7.78;;;8.60;99.90;;;;;;5026306;28;20041;-86
2022/03/14 03:28:37;;;;;;;13.73;7.68;;;8.70;99.90;;;;;;4997658;28;20508;-86
2022/03/14 03:31:08;;;;;;;13.40;7.90;;;9.30;99.90;;;;;;5015150;28;20037;-86
2022/03/14 03:33:35;;;;;;;13.40;7.53;;;8.50;99.90;;;;;;5014581;28;20041;-86
2022/03/14 03:36:01;;;;;;;13.20;7.65;;;9.40;99.90;;;;;;5014985;28;20087;-86
2022/03/14 03:38:27;;;;;;;12.88;7.55;;;8.50;99.90;;;;;;5008620;28;20076;-87
2022/03/14 03:40:53;;;;;;;14.57;8.40;;;8.50;99.90;;;;;;4998418;28;20041;-87
2022/03/14 03:43:19;;;;;;;14.65;8.05;;;8.50;99.90;;;;;;5027248;28;20037;-87
2022/03/14 03:45:44;;;;;;;16.73;7.75;;;8.50;99.90;;;;;;5013801;28;20037;-87
2022/03/14 03:48:10;;;;;;;13.02;7.10;;;8.50;99.90;;;;;;5007707;28;20150;-87
2022/03/14 03:50:36;;;;;;;14.00;7.68;;;8.40;99.90;;;;;;4998203;28;20505;-86
2022/03/14 03:53:02;;;;;;;12.23;7.07;;;9.90;99.90;;;;;;4992847;28;20102;-87
2022/03/14 03:55:27;;;;;;;13.50;7.88;;;8.50;99.90;;;;;;5012703;28;20037;-86
2022/03/14 03:57:53;;;;;;;12.88;6.80;;;8.90;99.90;;;;;;4994478;28;20037;-86
2022/03/14 04:00:20;;;;;;;12.68;7.15;;;8.50;99.90;;;;;;5026789;28;20394;-86
2022/03/14 04:02:46;;;;;;;13.25;7.55;;;8.50;99.90;;;;;;4998185;28;20037;-86
2022/03/14 04:05:14;;;;;;;11.57;6.57;;;8.50;99.90;;;;;;5005531;28;20084;-86
2022/03/14 04:07:40;;;;;;;13.77;7.00;;;8.50;99.90;;;;;;5011640;28;20029;-87
2022/03/14 04:10:06;;;;;;;12.60;7.25;;;8.50;99.90;;;;;;5019449;28;20033;-86
2022/03/14 04:12:32;;;;;;;12.00;6.93;;;8.50;99.90;;;;;;4987902;28;20091;-87
2022/03/14 04:15:00;;;;;;;13.50;6.80;;;8.50;99.90;;;;;;5031438;28;20116;-87
2022/03/14 04:17:25;;;;;;;13.68;6.90;;;8.50;99.90;;;;;;5014761;28;20111;-86
2022/03/14 04:19:56;;;;;;;12.52;6.60;;;8.50;99.90;;;;;;4998181;28;20167;-87
2022/03/14 04:22:21;;;;;;;11.75;5.97;;;9.20;99.90;;;;;;5030185;28;20443;-86
2022/03/14 04:24:47;;;;;;;11.27;5.65;;;9.60;99.90;;;;;;5013219;28;20033;-87
2022/03/14 04:27:13;;;;;;;10.80;5.63;;;8.50;99.90;;;;;;5014387;28;20060;-87
2022/03/14 04:29:39;;;;;;;12.18;5.65;;;8.50;99.90;;;;;;4998455;28;20037;-86
2022/03/14 04:32:05;;;;;;;10.90;5.22;;;8.50;99.90;;;;;;5014390;28;20041;-87
2022/03/14 04:34:32;;;;;;;12.57;5.55;;;8.50;99.90;;;;;;4997559;28;20124;-87
2022/03/14 04:36:58;;;;;;;11.38;5.65;;;8.60;99.90;;;;;;4997118;28;20413;-87
2022/03/14 04:39:23;;;;;;;10.00;5.18;;;8.60;99.90;;;;;;4994806;28;20135;-86
2022/03/14 04:41:49;;;;;;;11.07;5.00;;;10.10;99.90;;;;;;5017118;28;20044;-87
2022/03/14 04:44:16;;;;;;;9.82;4.70;;;8.60;99.90;;;;;;5001048;28;20041;-86
2022/03/14 04:46:42;;;;;;;9.25;4.40;;;9.40;99.90;;;;;;4999986;28;20061;-87
2022/03/14 04:49:13;;;;;;;10.55;4.70;;;9.50;99.90;;;;;;5021233;28;20129;-86
2022/03/14 04:51:39;;;;;;;9.40;4.57;;;8.70;99.90;;;;;;5018220;28;20128;-86
2022/03/14 04:54:04;;;;;;;10.07;4.47;;;9.00;99.90;;;;;;4991029;28;20049;-86
2022/03/14 04:56:30;;;;;;;10.07;4.28;;;8.80;99.90;;;;;;5001668;28;20041;-86
2022/03/14 04:58:56;;;;;;;11.15;4.40;;;8.80;99.90;;;;;;4999515;28;20049;-86
2022/03/14 05:01:23;;;;;;;8.60;4.05;;;8.80;99.90;;;;;;5018085;28;20037;-86
2022/03/14 05:03:52;;;;;;;9.88;4.32;;;8.80;99.90;;;;;;5015879;28;20111;-86
2022/03/14 05:06:21;;;;;;;8.50;3.95;;;8.90;99.90;;;;;;5033995;28;20033;-86
2022/03/14 05:08:47;;;;;;;10.27;4.20;;;8.90;99.90;;;;;;5016450;28;20033;-86
2022/03/14 05:11:14;;;;;;;8.85;3.85;;;8.90;99.90;;;;;;5031405;28;20394;-86
2022/03/14 05:13:41;;;;;;;9.20;3.97;;;9.00;99.90;;;;;;5004489;28;20041;-86
2022/03/14 05:16:07;;;;;;;9.57;4.38;;;9.00;99.90;;;;;;4996742;28;20061;-87
2022/03/14 05:18:34;;;;;;;9.55;4.32;;;9.00;99.90;;;;;;4997992;28;20552;-87
2022/03/14 05:21:01;;;;;;;9.43;4.40;;;9.00;99.90;;;;;;5013516;28;20064;-86
2022/03/14 05:23:28;;;;;;;9.52;3.75;;;9.00;99.90;;;;;;5013246;28;20045;-86
2022/03/14 05:25:54;;;;;;;9.23;4.18;;;9.00;99.90;;;;;;4979045;28;20076;-87
2022/03/14 05:28:20;;;;;;;10.85;3.72;;;10.20;99.90;;;;;;4967137;28;20041;-86
2022/03/14 05:30:46;;;;;;;12.88;3.88;;;9.60;99.90;;;;;;5003934;28;20056;-87
2022/03/14 05:33:11;;;;;;;8.90;3.90;;;9.20;99.90;;;;;;4994654;28;20069;-87
2022/03/14 05:35:37;;;;;;;8.65;3.63;;;9.90;99.90;;;;;;5010912;28;20042;-87
2022/03/14 05:38:03;;;;;;;8.82;3.75;;;9.00;99.90;;;;;;4981600;28;20100;-87
2022/03/14 05:40:30;;;;;;;8.88;4.07;;;9.80;99.90;;;;;;4979965;28;20412;-87
2022/03/14 05:42:56;;;;;;;8.95;4.07;;;9.00;99.90;;;;;;4995729;28;20068;-85
2022/03/14 05:45:22;;;;;;;8.52;3.75;;;9.00;99.90;;;;;;4981287;28;20076;-86
2022/03/14 05:47:48;;;;;;;8.45;3.50;;;9.00;99.90;;;;;;5017221;28;20044;-86
2022/03/14 05:50:15;;;;;;;9.45;4.20;;;9.20;99.90;;;;;;5012762;28;20111;-87
2022/03/14 05:52:41;;;;;;;8.50;3.85;;;9.00;99.90;;;;;;4992082;28;20041;-86
2022/03/14 05:55:07;;;;;;;8.20;3.45;;;9.00;99.90;;;;;;4996935;28;20037;-86
2022/03/14 05:57:33;;;;;;;8.50;3.67;;;9.00;99.90;;;;;;4979057;28;20183;-87
2022/03/14 05:59:59;;;;;;;8.70;3.80;;;9.00;99.90;;;;;;4995658;28;20029;-85
2022/03/14 06:02:25;;;;;;;8.77;3.90;;;9.00;99.90;;;;;;4993316;28;20042;-86
2022/03/14 06:04:53;;;;;;;8.45;3.65;;;9.00;99.90;;;;;;5010337;28;20045;-87
2022/03/14 06:07:21;;;;;;;8.43;3.70;;;9.00;99.90;;;;;;5011939;28;20030;-87
2022/03/14 06:09:47;;;;;;;8.35;3.60;;;9.60;99.90;;;;;;5005596;28;20069;-86
2022/03/14 06:12:26;;;;;;;8.48;3.92;;;9.00;99.90;;;;;;4995792;28;20335;-86
2022/03/14 06:14:56;;;;;;;10.07;3.95;;;8.90;99.90;;;;;;5029034;28;20052;-86
2022/03/14 06:17:22;;;;;;;8.90;4.10;;;9.00;99.90;;;;;;5027767;28;20068;-87
2022/03/14 06:19:49;;;;;;;8.43;3.85;;;9.00;99.90;;;;;;5013353;28;20060;-86
2022/03/14 06:22:16;;;;;;;8.95;4.10;;;8.90;99.90;;;;;;4998576;28;20050;-86
2022/03/14 06:24:42;;;;;;;8.55;3.88;;;8.90;99.90;;;;;;4999438;28;20044;-86
2022/03/14 06:27:07;;;;;;;8.57;3.67;;;8.90;99.90;;;;;;4998771;28;20033;-86
2022/03/14 06:29:33;;;;;;;7.93;3.92;;;9.30;99.90;;;;;;5015701;28;20102;-86
2022/03/14 06:31:59;;;;;;;8.90;4.03;;;10.10;99.90;;;;;;4996451;28;20457;-86
2022/03/14 06:34:26;;;;;;;10.63;4.47;;;8.90;99.90;;;;;;5013924;28;20037;-86
2022/03/14 06:36:52;;;;;;;9.15;4.05;;;8.90;99.90;;;;;;5013064;28;20099;-86
2022/03/14 06:39:18;;;;;;;8.70;4.15;;;9.30;99.90;;;;;;4988971;28;20477;-86
2022/03/14 06:41:44;;;;;;;8.88;4.00;;;8.90;99.90;;;;;;5010841;28;20041;-86
2022/03/14 06:44:11;;;;;;;8.80;3.95;;;9.00;99.90;;;;;;4990938;28;20116;-87
2022/03/14 06:46:36;;;;;;;9.15;4.18;;;9.00;99.90;;;;;;5018320;28;20486;-85
2022/03/14 06:49:03;;;;;;;9.18;3.90;;;9.00;99.90;;;;;;4982103;28;20069;-86
2022/03/14 06:51:29;;;;;;;8.70;3.80;;;9.00;99.90;;;;;;4978412;28;20609;-86
2022/03/14 06:53:54;;;;;;;8.60;3.83;;;9.00;99.90;;;;;;5005278;28;20040;-86
2022/03/14 06:56:20;;;;;;;8.52;3.83;;;9.10;99.90;;;;;;4986846;28;20124;-87
2022/03/14 06:58:46;;;;;;;9.25;4.40;;;9.00;99.90;;;;;;5000164;28;20104;-86
2022/03/14 07:01:12;;;;;;;10.00;3.95;;;9.00;99.90;;;;;;4991313;28;20033;-86
2022/03/14 07:03:38;;;;;;;8.20;3.90;;;9.00;99.90;;;;;;4976759;28;20040;-85
2022/03/14 07:06:04;;;;;;;9.18;4.18;;;9.00;99.90;;;;;;5007245;28;20043;-86
2022/03/14 07:08:30;;;;;;;9.20;4.43;;;9.70;99.90;;;;;;5006650;28;20461;-86
2022/03/14 07:10:55;;;;;;;8.82;3.85;;;10.70;99.90;;;;;;5012520;28;20029;-86
2022/03/14 07:13:21;;;;;;;9.27;3.75;;;9.00;99.90;;;;;;5027960;28;21606;-85
2022/03/14 07:15:47;;;;;;;8.73;4.15;;;9.00;99.90;;;;;;4978253;28;20049;-85
2022/03/14 07:18:15;;;;;;;8.98;4.00;;;9.00;99.90;;;;;;4960898;28;20046;-88
2022/03/14 07:20:41;;;;;;;8.82;3.95;;;9.00;99.90;;;;;;4974182;28;20099;-86
2022/03/14 07:23:07;;;;;;;9.00;4.07;;;9.00;99.90;;;;;;4976725;28;20494;-87
2022/03/14 07:25:37;;;;;;;8.73;3.97;;;9.00;99.90;;;;;;4986427;28;20038;-83
2022/03/14 07:28:08;;;;;;;8.25;4.20;;;9.00;99.90;;;;;;4988388;28;20060;-84
2022/03/14 07:30:35;;;;;;;9.25;4.20;;;9.10;99.90;;;;;;5009483;28;20037;-85
2022/03/14 07:33:00;;;;;;;9.00;4.35;;;9.10;99.90;;;;;;4974135;28;20572;-85
2022/03/14 07:35:27;;;;;;;10.38;4.30;;;9.50;99.90;;;;;;4970816;28;20073;-85
2022/03/14 07:37:53;;;;;;;11.40;4.20;;;9.10;99.90;;;;;;4979458;28;20037;-86
2022/03/14 07:40:19;;;;;;;9.23;4.20;;;10.00;99.90;;;;;;4979086;28;20045;-86
2022/03/14 07:42:48;;;;;;;9.52;4.30;;;7.90;99.90;;;;;;4975776;28;20065;-89
2022/03/14 07:45:16;;;;;;;9.80;4.35;;;9.10;99.90;;;;;;5003871;28;20052;-87
2022/03/14 07:47:42;;;;;;;10.75;4.50;;;9.10;99.90;;;;;;4973708;28;20065;-87
2022/03/14 07:50:10;;;;;;;9.43;4.30;;;9.20;99.90;;;;;;4972623;28;20045;-83
2022/03/14 07:52:37;;;;;;;9.43;4.50;;;9.20;99.90;;;;;;4992267;28;20048;-86
2022/03/14 07:55:04;;;;;;;10.07;4.40;;;9.20;99.90;;;;;;4987570;28;20038;-86
2022/03/14 07:57:31;;;;;;;9.57;4.68;;;9.30;99.90;;;;;;4999963;28;20511;-85
2022/03/14 07:59:59;;;;;;;8.88;4.35;;;9.30;99.90;;;;;;4990055;28;20068;-85
2022/03/14 08:02:25;;;;;;;9.25;4.43;;;9.20;99.90;;;;;;4971869;28;20048;-85
2022/03/14 08:04:50;;;;;;;8.93;4.40;;;10.20;99.90;;;;;;5002815;28;20577;-86
2022/03/14 08:07:17;;;;;;;9.52;4.68;;;9.30;99.90;;;;;;4971684;28;20080;-87
2022/03/14 08:09:42;;;;;;;10.75;4.72;;;9.20;99.90;;;;;;4994086;28;20037;-86
2022/03/14 08:12:12;;;;;;;9.55;4.47;;;9.20;99.90;;;;;;4998930;28;20041;-86
2022/03/14 08:14:38;;;;;;;11.23;4.70;;;;;;;;;;4972035;28;20041;-89
2022/03/14 08:17:04;;;;;;;10.10;4.72;;;9.20;99.90;;;;;;5003284;28;20064;-86
2022/03/14 08:19:30;;;;;;;9.13;4.47;;;9.20;99.90;;;;;;4978355;28;20037;-88
2022/03/14 08:21:57;;;;;;;9.98;4.63;;;9.20;99.90;;;;;;5010232;28;20486;-86
2022/03/14 08:24:23;;;;;;;10.63;4.70;;;9.20;99.90;;;;;;5009575;28;20045;-86
2022/03/14 08:26:49;;;;;;;9.52;4.45;;;9.20;99.90;;;;;;5009658;28;20041;-86
2022/03/14 08:29:15;;;;;;;10.07;4.47;;;10.00;99.90;;;;;;4974385;28;20601;-85
2022/03/14 08:31:41;;;;;;;9.73;4.85;;;9.20;99.90;;;;;;4974089;28;20102;-86
2022/03/14 08:34:07;;;;;;;10.32;4.68;;;10.50;99.90;;;;;;4982937;28;20037;-86
2022/03/14 08:36:35;;;;;;;9.90;5.13;;;9.20;99.90;;;;;;4979412;28;20120;-86
2022/03/14 08:39:03;;;;;;;8.95;4.63;;;9.20;99.90;;;;;;4993077;28;20116;-85
2022/03/14 08:41:30;;;;;;;10.60;4.72;;;10.50;99.90;;;;;;5011827;28;20037;-85
2022/03/14 08:44:05;;;;;;;9.30;4.75;;;9.30;99.90;;;;;;5009553;28;20052;-85
2022/03/14 08:46:31;;;;;;;9.35;4.88;;;;;;;;;;4960323;28;20042;-85
2022/03/14 08:48:57;;;;;;;10.10;5.10;;;8.00;99.90;;;;;;4985236;28;20064;-86
2022/03/14 08:51:23;;;;;;;9.38;4.60;;;9.30;99.90;;;;;;4993178;28;20042;-86
2022/03/14 08:53:49;;;;;;;10.05;5.07;;;9.40;99.90;;;;;;4992357;28;20383;-87
2022/03/14 08:56:14;;;;;;;10.88;5.22;;;9.40;99.90;;;;;;4964593;28;20044;-86
2022/03/14 08:58:40;;;;;;;9.70;4.85;;;9.40;99.90;;;;;;4977872;28;20033;-87
2022/03/14 09:01:07;;;;;;;10.10;5.50;;;9.50;99.90;;;;;;4977394;28;20075;-85
2022/03/14 09:03:32;;;;;;;9.98;5.38;;;9.50;99.90;;;;;;4983225;28;20040;-83
2022/03/14 09:05:58;;;;;;;9.63;4.97;;;9.50;99.90;;;;;;4972528;28;20435;-85
2022/03/14 09:08:26;;;;;;;10.07;5.40;;;9.50;99.90;;;;;;4990595;28;20053;-84
2022/03/14 09:10:53;;;;;;;10.68;5.65;;;9.50;99.90;;;;;;4973247;28;20117;-83
2022/03/14 09:13:23;;;;;;;10.50;5.35;;;9.60;99.90;;;;;;5004330;28;20049;-85
2022/03/14 09:15:50;;;;;;;14.18;6.20;;;11.30;99.90;;;;;;5006628;28;20080;-85
2022/03/14 09:18:17;;;;;;;12.18;5.93;;;10.40;99.90;;;;;;4994766;28;20037;-87
2022/03/14 09:20:44;;;;;;;9.95;5.40;;;9.70;99.90;;;;;;4976582;28;20045;-85
2022/03/14 09:23:13;;;;;;;11.52;6.22;;;;;;;;;;5001427;28;20037;-88
2022/03/14 09:25:38;;;;;;;11.57;6.20;;;9.70;99.90;;;;;;4973070;28;20042;-87
2022/03/14 09:28:04;;;;;;;10.88;6.15;;;10.40;99.90;;;;;;4981600;28;20041;-86
2022/03/14 09:30:30;;;;;;;11.00;6.35;;;9.80;99.90;;;;;;5002400;28;20551;-86
2022/03/14 09:32:56;;;;;;;11.32;6.05;;;9.90;99.90;;;;;;5000642;28;20076;-83
2022/03/14 09:35:26;;;;;;;10.80;5.88;;;9.90;99.90;;;;;;5000659;28;20033;-84
2022/03/14 09:37:52;;;;;;;11.70;6.10;;;9.90;99.90;;;;;;4982430;28;20085;-85
2022/03/14 09:40:21;;;;;;;10.82;5.72;;;9.90;99.90;;;;;;5005396;28;20029;-84
2022/03/14 09:42:59;;;;;;;11.60;6.40;;;10.00;99.90;;;;;;5003369;28;20045;-84
2022/03/14 09:45:26;;;;;;;11.27;6.38;;;10.00;99.90;;;;;;5007694;28;20074;-85
2022/03/14 09:47:56;;;;;;;14.77;6.78;;;10.00;99.90;;;;;;4997904;28;20451;-85
2022/03/14 09:50:35;;;;;;;11.77;7.05;;;10.00;99.90;;;;;;5018730;28;20057;-84
2022/03/14 09:53:15;;;;;;;11.52;6.97;;;10.00;99.90;;;;;;4996430;28;20124;-83
2022/03/14 09:55:45;;;;;;;14.23;7.15;;;9.90;99.90;;;;;;5005514;28;20041;-83
2022/03/14 09:58:12;;;;;;;11.43;7.03;;;9.90;99.90;;;;;;5009082;28;20061;-86
2022/03/14 10:00:38;;;;;;;12.38;7.57;;;9.90;99.90;;;;;;4996712;28;20052;-86
2022/03/14 10:03:05;;;;;;;13.38;8.30;;;9.90;99.90;;;;;;4974142;28;20053;-84
2022/03/14 10:05:31;;;;;;;12.77;8.10;;;10.40;99.90;;;;;;4999323;28;20038;-85
2022/03/14 10:07:57;;;;;;;13.20;8.55;;;9.80;99.90;;;;;;4996398;28;20387;-85
2022/03/14 10:10:23;;;;;;;13.23;8.82;;;9.90;99.90;;;;;;4983240;28;20033;-85
2022/03/14 10:12:53;;;;;;;13.25;8.75;;;9.80;99.90;;;;;;4996707;28;20045;-83
2022/03/14 10:15:26;;;;;;;14.02;9.07;;;9.80;99.90;;;;;;4977843;28;20088;-85
2022/03/14 10:17:53;;;;;;;14.27;8.73;;;9.80;99.90;;;;;;4977919;28;20069;-86
2022/03/14 10:20:21;;;;;;;14.27;9.10;;;9.80;99.90;;;;;;5010929;28;20052;-86
2022/03/14 10:22:47;;;;;;;14.02;9.35;;;9.80;99.90;;;;;;4985852;28;20033;-87
2022/03/14 10:25:16;;;;;;;14.07;9.40;;;9.70;99.90;;;;;;4991414;28;20479;-85
2022/03/14 10:27:45;;;;;;;14.25;9.10;;;9.60;99.90;;;;;;5012573;28;20125;-87
2022/03/14 10:30:29;;;;;;;15.38;10.10;;;9.60;99.90;;;;;;4995976;28;20041;-92
2022/03/14 10:33:14;;;;;;;14.82;9.15;;;9.60;99.90;;;;;;4996940;28;20099;-87
2022/03/14 10:35:44;;;;;;;15.43;9.18;;;9.50;99.90;;;;;;4991708;28;20048;-86
2022/03/14 10:38:13;;;;;;;16.52;9.30;;;9.40;99.90;;;;;;4986790;28;20025;-86
2022/03/14 10:40:41;;;;;;;20.48;9.95;;;10.40;99.90;;;;;;4988095;28;20630;-87
2022/03/14 10:43:28;;;;;;;15.80;9.10;;;9.40;99.90;;;;;;5008536;28;20492;-88
2022/03/14 10:45:55;;;;;;;18.17;10.13;;;9.40;99.90;;;;;;4995191;28;20037;-87
2022/03/14 10:48:38;;;;;;;18.48;10.55;;;10.80;99.90;;;;;;5005083;28;20679;-86
2022/03/14 10:51:06;;;;;;;17.77;11.07;;;9.50;99.90;;;;;;5007247;28;20045;-86
2022/03/14 10:53:36;;;;;;;18.27;11.18;;;9.50;99.90;;;;;;4994181;28;20052;-86
2022/03/14 10:56:04;;;;;;;18.48;11.40;;;9.60;99.90;;;;;;4971747;28;20491;-86
2022/03/14 10:58:33;;;;;;;19.23;11.23;;;9.60;99.90;;;;;;4969220;28;20099;-85
2022/03/14 11:01:05;;;;;;;19.67;12.27;;;9.70;99.90;;;;;;4992515;28;20041;-86
2022/03/14 11:03:33;;;;;;;18.17;12.05;;;9.70;99.90;;;;;;5008068;28;20391;-88
2022/03/14 11:06:07;;;;;;;19.70;12.38;;;9.80;99.90;;;;;;5006830;28;20060;-87
2022/03/14 11:08:36;;;;;;;19.77;12.15;;;9.80;99.90;;;;;;4992697;28;20112;-86
2022/03/14 11:11:07;;;;;;;19.42;12.18;;;9.80;99.90;;;;;;5026694;28;20037;-86
2022/03/14 11:13:38;;;;;;;19.10;11.30;;;9.90;99.90;;;;;;4987356;28;20053;-86
2022/03/14 11:16:04;;;;;;;18.15;10.55;;;9.90;99.90;;;;;;5015997;28;20053;-86
2022/03/14 11:18:35;;;;;;;18.10;9.88;;;9.90;99.90;;;;;;4995553;28;20055;-86
2022/03/14 11:21:02;;;;;;;19.02;9.65;;;9.90;99.90;;;;;;5024917;28;20049;-86
2022/03/14 11:23:29;;;;;;;18.83;9.93;;;9.90;99.90;;;;;;5010389;28;20048;-86
2022/03/14 11:25:55;;;;;;;16.77;8.60;;;9.80;99.90;;;;;;5002041;28;20080;-86
2022/03/14 11:28:24;;;;;;;17.23;7.93;;;9.80;99.90;;;;;;4998978;28;20075;-86
2022/03/14 11:30:57;;;;;;;18.08;7.85;;;9.80;99.90;;;;;;5024529;28;20080;-86
2022/03/14 11:33:23;;;;;;;21.38;8.73;;;8.30;99.90;;;;;;5010082;28;20072;-86
2022/03/14 11:35:50;;;;;;;22.05;8.95;;;9.70;99.90;;;;;;5010076;28;20131;-85
2022/03/14 11:38:17;;;;;;;16.40;7.20;;;9.70;99.90;;;;;;5011484;28;20080;-85
2022/03/14 11:40:43;;;;;;;16.70;7.80;;;9.70;99.90;;;;;;4979072;28;20114;-86
2022/03/14 11:43:11;;;;;;;19.88;7.50;;;9.70;99.90;;;;;;5017300;28;20045;-86
2022/03/14 11:45:37;;;;;;;17.50;7.45;;;9.70;99.90;;;;;;5000709;28;20111;-86
2022/03/14 11:48:05;;;;;;;18.45;7.93;;;9.70;99.90;;;;;;5010453;28;20124;-84
2022/03/14 11:50:45;;;;;;;19.13;8.60;;;9.70;99.90;;;;;;5003647;28;20122;-89
2022/03/14 11:53:18;;;;;;;18.52;7.88;;;9.80;99.90;;;;;;5013571;28;20208;-89
2022/03/14 11:56:00;;;;;;;18.13;8.52;;;9.80;99.90;;;;;;5025312;28;20097;-88
2022/03/14 11:58:42;;;;;;;19.07;8.27;;;9.80;99.90;;;;;;5012017;28;20029;-89
2022/03/14 12:01:28;;;;;;;19.45;8.23;;;9.80;99.90;;;;;;5045678;28;20072;-88
2022/03/14 12:03:58;;;;;;;18.52;8.25;;;9.90;99.90;;;;;;5008972;28;20041;-89
2022/03/14 12:06:46;;;;;;;16.63;8.10;;;9.90;99.90;;;;;;5014993;28;20069;-88
2022/03/14 12:09:34;;;;;;;18.48;7.65;;;9.90;99.90;;;;;;5027002;28;20044;-89
2022/03/14 12:12:20;;;;;;;17.27;7.78;;;10.00;99.90;;;;;;5008243;28;20045;-93
2022/03/14 12:14:48;;;;;;;18.27;8.00;;;10.00;99.90;;;;;;5001585;28;20049;-92
2022/03/14 12:17:14;;;;;;;18.40;7.47;;;9.90;99.90;;;;;;5024558;28;20056;-88
2022/03/14 12:19:42;;;;;;;16.60;7.40;;;9.90;99.90;;;;;;5014868;28;20041;-93
2022/03/14 12:22:16;;;;;;;17.98;7.63;;;9.90;99.90;;;;;;5006055;28;20045;-91
2022/03/14 12:24:47;;;;;;;17.10;7.57;;;9.90;99.90;;;;;;5000466;28;20044;-89
2022/03/14 12:27:34;;;;;;;;;;;;;;;;;;;;;
2022/03/14 12:30:24;;;;;;;17.38;7.50;;;9.80;99.90;;;;;;5028375;28;20110;-90
2022/03/14 12:32:55;;;;;;;17.70;8.32;;;9.80;99.90;;;;;;4990665;28;20118;-89
2022/03/14 12:35:25;;;;;;;17.70;8.48;;;9.80;99.90;;;;;;5009788;28;20367;-90
2022/03/14 12:37:54;;;;;;;18.63;8.40;;;9.80;99.90;;;;;;5013261;28;20029;-88
2022/03/14 12:40:26;;;;;;;17.35;8.93;;;9.80;99.90;;;;;;5014041;28;20442;-88
2022/03/14 12:43:12;;;;;;;18.17;8.60;;;9.80;99.90;;;;;;5029294;28;20084;-83
2022/03/14 12:45:39;;;;;;;18.08;8.25;;;9.80;99.90;;;;;;5012386;28;20048;-84
2022/03/14 12:48:24;;;;;;;19.40;8.90;;;9.80;99.90;;;;;;5028349;28;20040;-87
2022/03/14 12:50:50;;;;;;;19.52;8.68;;;9.80;99.90;;;;;;5024731;28;20052;-83
2022/03/14 12:53:18;;;;;;;17.08;8.30;;;9.90;99.90;;;;;;5007330;28;20040;-86